This is the latest recevied weather packets stored in our database for station/object HI3RRR-13. If no packets are shown the sender has not sent any weather packets the latest 10 day(s).
| Time | Temp. | Humidity | Pressure | Rain* | Wind** | Luminosity | Snow |
|---|---|---|---|---|---|---|---|
| 1788220460 | 27.78° C | 66% | 1014 hPa | 0 mm | - | - | - |
| 1788219859 | 27.78° C | 66% | 1014 hPa | 0 mm | - | - | - |
| 1788219258 | 27.78° C | 66% | 1014 hPa | 0 mm | - | - | - |
| 1788218658 | 27.78° C | 66% | 1013 hPa | 0 mm | - | - | - |
| 1788218057 | 27.78° C | 66% | 1012 hPa | 0 mm | - | - | - |
| 1788217456 | 27.78° C | 66% | 1012 hPa | 0 mm | - | - | - |
| 1788216856 | 27.78° C | 66% | 1012 hPa | 0 mm | - | - | - |
| 1788216255 | 28.33° C | 66% | 1012 hPa | 0 mm | - | - | - |
| 1788215655 | 28.33° C | 66% | 1012 hPa | 0 mm | - | - | - |
| 1788215068 | 28.89° C | 66% | 1012 hPa | 0 mm | - | - | - |
| 1788214453 | 29.44° C | 66% | 1012 hPa | 0 mm | - | - | - |
| 1788213852 | 30° C | 66% | 1012 hPa | 0.25 mm | - | - | - |
| 1788213251 | 30.56° C | 66% | 1012 hPa | 0.51 mm | - | - | - |
| 1788212651 | 30.56° C | 66% | 1012 hPa | 0.51 mm | - | - | - |
| 1788212050 | 30.56° C | 65% | 1012 hPa | 0.51 mm | - | - | - |
| 1788211449 | 30.56° C | 64% | 1011 hPa | 0.25 mm | - | - | - |
| 1788210848 | 30.56° C | 65% | 1011 hPa | 0.51 mm | - | - | - |
| 1788210247 | 31.11° C | 62% | 1011 hPa | 0 mm | - | - | - |
| 1788209646 | 31.67° C | 62% | 1011 hPa | 0.51 mm | - | - | - |
| 1788209045 | 31.67° C | 62% | 1011 hPa | 0.25 mm | - | - | - |
| 1788208443 | 31.67° C | 62% | 1011 hPa | 0 mm | - | - | - |
| 1788207606 | 31.67° C | 61% | 1011 hPa | 0 mm | - | - | - |
| 1788207005 | 32.22° C | 59% | 1011 hPa | 0 mm | - | - | - |
| 1788206404 | 34.44° C | 52% | 1011 hPa | 0 mm | - | - | - |
| 1788205803 | 34.44° C | 52% | 1011 hPa | 0 mm | - | - | - |
* Rain latest hour (hover to see other rain measurements)
** Current wind speed in m/s (hover to see current wind gust speed)